Time;durP1;ratioP1;P1;durP2;ratioP2;P2;SDS_P1;SDS_P2;PMS_P1;PMS_P2;Temp;Humidity;BMP_temperature;BMP_pressure;BME280_temperature;BME280_humidity;BME280_pressure;Samples;Min_cycle;Max_cycle;Signal;HPM_P1;HPM_P2
2021/07/17 00:02:04;;;;;;;;;;;;;;;28.46;39.74;97620.78;5047385;28;1299;-51
2021/07/17 00:04:29;;;;;;;;;;;;;;;28.42;39.74;97618.53;5049591;28;1513;-52
2021/07/17 00:06:55;;;;;;;;;;;;;;;28.50;39.76;97622.19;5049665;28;1219;-52
2021/07/17 00:09:20;;;;;;;;;;;;;;;28.46;39.71;97623.44;5034136;28;1586;-52
2021/07/17 00:11:46;;;;;;;;;;;;;;;28.46;39.78;97635.88;5030221;28;1212;-52
2021/07/17 00:14:11;;;;;;;;;;;;;;;28.40;39.61;97629.28;5028452;28;1512;-53
2021/07/17 00:16:36;;;;;;;;;;;;;;;28.43;39.83;97629.00;5029046;28;1212;-53
2021/07/17 00:19:01;;;;;;;;;;;;;;;28.43;39.71;97620.22;5027136;28;2003;-52
2021/07/17 00:21:26;;;;;;;;;;;;;;;28.39;40.03;97618.81;5029407;28;1093;-53
2021/07/17 00:23:52;;;;;;;;;;;;;;;28.41;39.81;97617.72;5029618;28;1441;-53
2021/07/17 00:26:17;;;;;;;;;;;;;;;28.43;39.74;97618.41;5029055;28;1630;-51
2021/07/17 00:28:42;;;;;;;;;;;;;;;28.43;39.81;97615.75;5028908;28;1378;-53
2021/07/17 00:31:08;;;;;;;;;;;;;;;28.41;40.06;97616.88;5029487;28;1227;-52
2021/07/17 00:33:33;;;;;;;;;;;;;;;28.41;39.81;97611.56;5029199;28;1240;-53
2021/07/17 00:35:58;;;;;;;;;;;;;;;28.43;39.78;97621.06;5028672;28;1740;-53
2021/07/17 00:38:23;;;;;;;;;;;;;;;28.46;39.79;97619.97;5029178;28;1971;-52
2021/07/17 00:40:49;;;;;;;;;;;;;;;28.43;39.96;97618.41;5028209;28;1617;-52
2021/07/17 00:43:14;;;;;;;;;;;;;;;28.43;39.67;97615.75;5028307;28;1397;-52
2021/07/17 00:45:40;;;;;;;;;;;;;;;28.39;40.05;97616.19;5029450;28;1404;-52
2021/07/17 00:48:05;;;;;;;;;;;;;;;28.37;39.92;97611.00;5028708;28;1173;-52
2021/07/17 00:50:30;;;;;;;;;;;;;;;28.38;39.83;97607.38;5027450;28;1637;-52
2021/07/17 00:52:55;;;;;;;;;;;;;;;28.41;40.00;97611.56;5029482;28;1105;-52
2021/07/17 00:55:21;;;;;;;;;;;;;;;28.44;39.87;97606.84;5016337;28;1560;-51
2021/07/17 00:57:47;;;;;;;;;;;;;;;28.41;39.79;97601.78;5023857;28;1902;-52
2021/07/17 01:00:12;;;;;;;;;;;;;;;28.43;39.95;97605.13;5023498;28;1349;-52
2021/07/17 01:02:38;;;;;;;;;;;;;;;28.44;39.67;97603.31;5024776;28;1145;-52
2021/07/17 01:05:04;;;;;;;;;;;;;;;28.41;40.06;97595.66;5025345;28;1161;-53
2021/07/17 01:07:30;;;;;;;;;;;;;;;28.42;39.84;97592.03;5027603;28;1640;-51
2021/07/17 01:09:55;;;;;;;;;;;;;;;28.42;39.73;97590.19;5017734;28;1564;-53
2021/07/17 01:12:20;;;;;;;;;;;;;;;28.35;39.97;97595.22;5028583;28;1421;-53
2021/07/17 01:14:45;;;;;;;;;;;;;;;28.45;39.66;97600.56;5029499;28;1228;-52
2021/07/17 01:17:10;;;;;;;;;;;;;;;28.44;39.81;97601.53;5028022;28;1914;-53
2021/07/17 01:19:36;;;;;;;;;;;;;;;28.36;39.78;97594.25;5017801;28;1695;-52
2021/07/17 01:22:01;;;;;;;;;;;;;;;28.41;39.90;97599.13;5028435;28;1252;-53
2021/07/17 01:24:26;;;;;;;;;;;;;;;28.44;39.81;97590.06;5026672;28;1520;-51
2021/07/17 01:26:52;;;;;;;;;;;;;;;28.41;39.81;97591.19;5027357;28;2012;-53
2021/07/17 01:29:17;;;;;;;;;;;;;;;28.44;39.75;97585.63;5031667;28;1670;-52
2021/07/17 01:31:43;;;;;;;;;;;;;;;28.42;39.93;97578.75;5032248;28;1197;-52
2021/07/17 01:34:08;;;;;;;;;;;;;;;28.45;39.76;97581.97;5029755;28;1581;-54
2021/07/17 01:36:33;;;;;;;;;;;;;;;28.39;39.67;97569.28;5032985;28;1360;-53
2021/07/17 01:38:58;;;;;;;;;;;;;;;28.42;39.97;97576.09;5031436;28;1955;-53
2021/07/17 01:41:23;;;;;;;;;;;;;;;28.42;39.93;97576.94;5031520;28;1811;-52
2021/07/17 01:43:50;;;;;;;;;;;;;;;28.41;39.88;97577.09;5032144;28;1204;-52
2021/07/17 01:46:16;;;;;;;;;;;;;;;28.39;40.05;97581.69;5030695;28;1311;-52
2021/07/17 01:48:48;;;;;;;;;;;;;;;28.36;39.90;97578.34;5031301;28;1662;-53
2021/07/17 01:51:13;;;;;;;;;;;;;;;28.38;39.91;97578.22;5030926;28;1141;-53
2021/07/17 01:53:38;;;;;;;;;;;;;;;28.41;39.52;97571.78;5029304;28;1502;-52
2021/07/17 01:56:04;;;;;;;;;;;;;;;28.50;39.78;97577.09;5030724;28;1571;-52
2021/07/17 01:58:29;;;;;;;;;;;;;;;28.39;39.77;97571.09;5030745;28;1957;-51
2021/07/17 02:00:54;;;;;;;;;;;;;;;28.42;39.82;97566.31;5032388;28;1074;-52
2021/07/17 02:03:19;;;;;;;;;;;;;;;28.43;39.69;97561.84;5030023;28;1589;-52
2021/07/17 02:05:45;;;;;;;;;;;;;;;28.38;39.83;97564.94;5029744;28;1447;-53
2021/07/17 02:08:10;;;;;;;;;;;;;;;28.41;39.64;97564.66;5030722;28;1539;-52
2021/07/17 02:10:36;;;;;;;;;;;;;;;28.39;40.00;97563.13;5029671;28;1590;-52
2021/07/17 02:13:04;;;;;;;;;;;;;;;28.45;39.88;97570.53;5031516;28;1528;-52
2021/07/17 02:15:30;;;;;;;;;;;;;;;28.48;39.64;97565.78;5029952;28;1198;-53
2021/07/17 02:17:55;;;;;;;;;;;;;;;28.42;39.86;97568.97;5029527;28;2005;-52
2021/07/17 02:20:21;;;;;;;;;;;;;;;28.42;39.99;97562.84;5031880;28;1237;-53
2021/07/17 02:22:46;;;;;;;;;;;;;;;28.47;39.49;97560.63;5030571;28;1338;-51
2021/07/17 02:25:11;;;;;;;;;;;;;;;28.42;39.54;97554.88;5030583;28;1590;-53
2021/07/17 02:27:36;;;;;;;;;;;;;;;28.41;39.58;97566.47;5030855;28;1405;-52
2021/07/17 02:30:03;;;;;;;;;;;;;;;28.35;39.89;97565.19;5030864;28;1346;-52
2021/07/17 02:32:28;;;;;;;;;;;;;;;28.35;40.10;97563.38;5030949;28;1096;-52
2021/07/17 02:34:54;;;;;;;;;;;;;;;28.41;39.90;97554.03;5028836;28;1565;-53
2021/07/17 02:37:20;;;;;;;;;;;;;;;28.44;39.95;97560.88;5031814;28;1961;-52
2021/07/17 02:39:45;;;;;;;;;;;;;;;28.45;39.79;97573.19;5028150;28;1608;-51
2021/07/17 02:42:10;;;;;;;;;;;;;;;28.46;39.67;97578.34;5031580;28;1189;-53
2021/07/17 02:44:36;;;;;;;;;;;;;;;28.48;39.60;97576.38;5030785;28;1173;-52
2021/07/17 02:47:01;;;;;;;;;;;;;;;28.36;39.64;97565.09;5025711;28;1583;-52
2021/07/17 02:49:26;;;;;;;;;;;;;;;28.47;39.88;97573.88;5028688;28;1303;-52
2021/07/17 02:51:51;;;;;;;;;;;;;;;28.38;39.88;97566.75;5028137;28;1322;-52
2021/07/17 02:54:17;;;;;;;;;;;;;;;28.43;39.95;97568.00;5029292;28;1582;-52
2021/07/17 02:56:42;;;;;;;;;;;;;;;28.39;40.02;97576.38;5026233;28;1562;-51
2021/07/17 02:59:08;;;;;;;;;;;;;;;28.43;39.98;97583.91;5030243;28;1966;-52
2021/07/17 03:01:33;;;;;;;;;;;;;;;28.37;40.00;97579.19;5030344;28;1137;-52
2021/07/17 03:03:58;;;;;;;;;;;;;;;28.35;40.06;97578.47;5027318;28;1760;-52
2021/07/17 03:06:23;;;;;;;;;;;;;;;28.79;39.44;97576.25;4967770;28;1201;-51
2021/07/17 03:08:48;;;;;;;;;;;;;;;28.55;39.56;97587.28;5029746;28;1291;-51
2021/07/17 03:11:14;;;;;;;;;;;;;;;28.44;39.75;97582.09;5029659;28;1640;-52
2021/07/17 03:13:39;;;;;;;;;;;;;;;28.44;39.95;97584.75;5029242;28;1481;-51
2021/07/17 03:16:04;;;;;;;;;;;;;;;28.43;40.00;97583.06;5031186;28;1169;-52
2021/07/17 03:18:29;;;;;;;;;;;;;;;28.37;39.94;97573.88;5026133;28;1918;-51
2021/07/17 03:20:55;;;;;;;;;;;;;;;28.37;39.86;97573.88;5030119;28;1541;-53
2021/07/17 03:23:20;;;;;;;;;;;;;;;28.38;40.02;97575.56;5029047;28;1319;-52
2021/07/17 03:25:45;;;;;;;;;;;;;;;28.34;39.98;97574.13;5028047;28;1693;-53
2021/07/17 03:28:10;;;;;;;;;;;;;;;28.34;40.05;97579.44;5027332;28;1472;-52
2021/07/17 03:30:35;;;;;;;;;;;;;;;28.47;39.80;97581.84;5030886;28;1173;-52
2021/07/17 03:33:01;;;;;;;;;;;;;;;28.41;39.86;97585.03;5027503;28;1664;-51
2021/07/17 03:35:26;;;;;;;;;;;;;;;28.39;39.84;97582.53;5029729;28;1283;-51
2021/07/17 03:37:51;;;;;;;;;;;;;;;28.45;39.80;97583.81;5029770;28;1973;-52
2021/07/17 03:40:16;;;;;;;;;;;;;;;28.45;39.75;97589.94;5027148;28;1546;-52
2021/07/17 03:42:41;;;;;;;;;;;;;;;28.39;39.84;97587.00;5030045;28;1201;-52
2021/07/17 03:45:07;;;;;;;;;;;;;;;28.52;39.84;97587.56;5029024;28;1455;-52
2021/07/17 03:47:32;;;;;;;;;;;;;;;28.35;39.99;97589.91;5027845;28;1573;-52
2021/07/17 03:49:57;;;;;;;;;;;;;;;28.39;39.96;97587.84;5028289;28;1212;-52
2021/07/17 03:52:22;;;;;;;;;;;;;;;28.41;39.70;97591.19;5030542;28;1236;-53
2021/07/17 03:54:48;;;;;;;;;;;;;;;28.38;39.70;97588.81;5027060;28;1578;-52
2021/07/17 03:57:13;;;;;;;;;;;;;;;28.38;39.92;97591.47;5028408;28;1972;-53
2021/07/17 03:59:38;;;;;;;;;;;;;;;28.31;39.73;97588.53;5030163;28;1390;-52
2021/07/17 04:02:03;;;;;;;;;;;;;;;28.35;40.04;97589.91;5027612;28;1107;-53
2021/07/17 04:04:29;;;;;;;;;;;;;;;28.37;39.83;97589.78;5027844;28;1568;-52
2021/07/17 04:06:54;;;;;;;;;;;;;;;28.30;40.24;97594.81;5029719;28;1137;-53
2021/07/17 04:09:19;;;;;;;;;;;;;;;28.43;39.95;97597.19;5025283;28;1571;-52
2021/07/17 04:11:44;;;;;;;;;;;;;;;28.41;40.01;97601.78;5027857;28;1195;-54
2021/07/17 04:14:10;;;;;;;;;;;;;;;28.34;39.68;97601.50;5026120;28;1541;-52
2021/07/17 04:16:35;;;;;;;;;;;;;;;28.34;39.92;97601.50;5030261;28;1192;-52
2021/07/17 04:19:00;;;;;;;;;;;;;;;28.38;39.83;97599.44;5029107;28;1977;-52
2021/07/17 04:21:25;;;;;;;;;;;;;;;28.36;40.16;97601.38;5030342;28;1185;-52
2021/07/17 04:23:51;;;;;;;;;;;;;;;28.36;40.03;97602.22;5027486;28;2085;-53
2021/07/17 04:26:16;;;;;;;;;;;;;;;28.34;40.11;97598.84;5029156;28;1574;-53
2021/07/17 04:28:41;;;;;;;;;;;;;;;28.36;40.05;97596.09;5028231;28;1422;-52
2021/07/17 04:31:06;;;;;;;;;;;;;;;28.40;40.03;97602.78;5028201;28;1152;-53
2021/07/17 04:33:31;;;;;;;;;;;;;;;28.36;39.91;97599.56;5026811;28;1646;-52
2021/07/17 04:35:57;;;;;;;;;;;;;;;28.32;39.95;97599.97;5026134;28;1571;-52
2021/07/17 04:38:22;;;;;;;;;;;;;;;28.41;39.88;97601.78;5029782;28;1942;-51
2021/07/17 04:40:47;;;;;;;;;;;;;;;28.39;40.09;97602.91;5027875;28;1617;-53
2021/07/17 04:43:12;;;;;;;;;;;;;;;28.39;40.09;97610.88;5029575;28;1129;-52
2021/07/17 04:45:37;;;;;;;;;;;;;;;28.44;39.76;97608.63;5029617;28;1113;-51
2021/07/17 04:48:06;;;;;;;;;;;;;;;28.38;40.09;97612.69;5029756;28;1275;-52
2021/07/17 04:50:31;;;;;;;;;;;;;;;28.38;39.90;97607.38;5027214;28;1603;-52
2021/07/17 04:52:57;;;;;;;;;;;;;;;28.36;40.12;97604.03;5029196;28;1133;-52
2021/07/17 04:55:22;;;;;;;;;;;;;;;28.31;40.05;97606.25;5027125;28;1644;-52
2021/07/17 04:57:47;;;;;;;;;;;;;;;28.33;40.10;97599.81;5025980;28;1910;-52
2021/07/17 05:00:12;;;;;;;;;;;;;;;28.33;39.87;97602.47;5029139;28;1490;-51
2021/07/17 05:03:04;;;;;;;;;;;;;;;28.33;40.31;97604.28;5030618;28;1153;-52
2021/07/17 05:05:30;;;;;;;;;;;;;;;28.39;39.90;97600.25;5027311;28;1609;-52
2021/07/17 05:07:55;;;;;;;;;;;;;;;28.36;39.99;97596.91;5032452;28;2348;-52
2021/07/17 05:10:21;;;;;;;;;;;;;;;28.39;39.82;97593.13;5030537;28;2196;-52
2021/07/17 05:12:47;;;;;;;;;;;;;;;28.35;40.10;97591.72;5031912;28;1161;-52
2021/07/17 05:15:12;;;;;;;;;;;;;;;28.34;39.85;97587.41;5032951;28;1184;-53
2021/07/17 05:17:38;;;;;;;;;;;;;;;28.34;39.91;97582.94;5031111;28;1906;-51
2021/07/17 05:20:04;;;;;;;;;;;;;;;28.34;40.10;97582.09;5027782;28;1718;-52
2021/07/17 05:22:29;;;;;;;;;;;;;;;28.29;40.07;97579.88;5031750;28;1660;-52
2021/07/17 05:24:54;;;;;;;;;;;;;;;28.53;39.80;97582.13;5030546;28;1710;-51
2021/07/17 05:27:19;;;;;;;;;;;;;;;28.47;39.80;97582.69;5032550;28;1444;-52
2021/07/17 05:29:44;;;;;;;;;;;;;;;28.49;39.84;97586.03;5031056;28;1675;-52
2021/07/17 05:32:10;;;;;;;;;;;;;;;28.47;39.49;97587.16;5022371;28;1361;-52
2021/07/17 05:34:35;;;;;;;;;;;;;;;28.38;39.97;97590.63;5029868;28;1565;-52
2021/07/17 05:37:00;;;;;;;;;;;;;;;28.34;39.85;97592.69;5032514;28;1197;-53
2021/07/17 05:39:25;;;;;;;;;;;;;;;28.35;39.99;97599.69;5028305;28;1977;-52
2021/07/17 05:41:50;;;;;;;;;;;;;;;28.37;40.14;97600.41;5033434;28;1140;-51
2021/07/17 05:44:16;;;;;;;;;;;;;;;28.38;39.94;97599.44;5026887;28;1698;-52
2021/07/17 05:46:41;;;;;;;;;;;;;;;28.40;39.63;97597.47;5032865;28;1134;-52
2021/07/17 05:49:06;;;;;;;;;;;;;;;28.40;39.88;97593.97;5031000;28;1365;-52
2021/07/17 05:51:31;;;;;;;;;;;;;;;28.41;39.96;97598.31;5031969;28;1196;-53
2021/07/17 05:53:56;;;;;;;;;;;;;;;28.35;39.96;97592.56;5028391;28;1843;-53
2021/07/17 05:56:22;;;;;;;;;;;;;;;28.35;39.90;97594.38;5031063;28;1573;-51
2021/07/17 05:58:47;;;;;;;;;;;;;;;28.36;39.84;97604.03;5043884;22;3416;-57
2021/07/17 06:01:12;;;;;;;;;;;;;;;28.31;40.31;97595.66;5011130;28;1126;-56
2021/07/17 06:03:40;;;;;;;;;;;;;;;28.47;40.09;97601.25;5009491;28;1770;-56
2021/07/17 06:06:05;;;;;;;;;;;;;;;28.37;40.00;97589.78;5012269;28;1110;-56
2021/07/17 06:08:30;;;;;;;;;;;;;;;28.39;39.85;97594.97;5006880;28;1391;-52
2021/07/17 06:10:55;;;;;;;;;;;;;;;28.36;40.09;97586.31;4990882;28;1554;-56
2021/07/17 06:13:21;;;;;;;;;;;;;;;28.39;39.83;97592.31;4990801;28;1574;-56
2021/07/17 06:15:46;;;;;;;;;;;;;;;28.40;39.93;97597.47;4991871;28;1309;-56
2021/07/17 06:18:11;;;;;;;;;;;;;;;28.44;39.92;97596.22;4990031;28;1918;-57
2021/07/17 06:20:36;;;;;;;;;;;;;;;28.39;39.84;97589.66;4989088;28;1565;-56
2021/07/17 06:23:01;;;;;;;;;;;;;;;28.46;39.80;97590.78;4992718;28;1143;-56
2021/07/17 06:25:27;;;;;;;;;;;;;;;28.43;40.07;97594.53;4990271;28;1758;-56
2021/07/17 06:27:52;;;;;;;;;;;;;;;28.56;39.69;97597.75;4991729;28;1442;-56
2021/07/17 06:30:17;;;;;;;;;;;;;;;28.36;39.84;97598.72;4990019;28;1541;-56
2021/07/17 06:32:42;;;;;;;;;;;;;;;28.44;39.93;97605.97;4990494;28;1385;-57
2021/07/17 06:35:08;;;;;;;;;;;;;;;28.46;39.48;97602.22;4992404;28;1178;-56
2021/07/17 06:37:33;;;;;;;;;;;;;;;28.37;39.95;97603.06;4990314;28;1961;-57
2021/07/17 06:39:58;;;;;;;;;;;;;;;28.33;39.81;97599.81;4988818;28;1577;-56
2021/07/17 06:42:23;;;;;;;;;;;;;;;28.39;39.85;97601.09;4991566;28;1115;-56
2021/07/17 06:44:49;;;;;;;;;;;;;;;28.35;40.18;97604.97;4992276;28;1361;-56
2021/07/17 06:47:14;;;;;;;;;;;;;;;28.35;39.99;97603.16;4991204;28;1631;-55
2021/07/17 06:49:39;;;;;;;;;;;;;;;28.33;39.98;97612.25;4990696;28;1441;-57
2021/07/17 06:52:04;;;;;;;;;;;;;;;28.38;40.16;97609.19;4991841;28;1205;-56
2021/07/17 06:54:30;;;;;;;;;;;;;;;28.42;39.80;97603.47;4989067;28;1513;-56
2021/07/17 06:56:55;;;;;;;;;;;;;;;28.33;40.04;97601.63;4989636;28;1695;-57
2021/07/17 06:59:20;;;;;;;;;;;;;;;28.48;39.63;97608.22;4990435;28;1902;-57
2021/07/17 07:01:45;;;;;;;;;;;;;;;28.36;39.82;97610.19;4991983;28;1134;-56
2021/07/17 07:04:11;;;;;;;;;;;;;;;28.36;40.09;97604.88;4989371;28;1566;-56
2021/07/17 07:06:36;;;;;;;;;;;;;;;28.34;40.30;97606.81;4988006;28;1675;-56
2021/07/17 07:09:01;;;;;;;;;;;;;;;28.37;39.92;97605.72;4990518;28;1391;-56
2021/07/17 07:11:26;;;;;;;;;;;;;;;28.38;40.09;97607.38;4990246;28;1780;-56
2021/07/17 07:13:51;;;;;;;;;;;;;;;28.41;39.93;97599.13;4989754;28;1304;-56
2021/07/17 07:16:17;;;;;;;;;;;;;;;28.38;39.96;97604.72;4990520;28;1304;-56
2021/07/17 07:18:42;;;;;;;;;;;;;;;28.46;39.73;97607.53;4989689;28;1898;-57
2021/07/17 07:21:07;;;;;;;;;;;;;;;28.38;40.01;97604.72;4990595;28;1039;-55
2021/07/17 07:23:32;;;;;;;;;;;;;;;28.39;39.65;97609.06;4990213;28;1449;-56
2021/07/17 07:25:57;;;;;;;;;;;;;;;28.43;39.83;97605.13;4983112;28;1785;-52
2021/07/17 07:28:23;;;;;;;;;;;;;;;28.35;39.71;97600.50;4989846;28;1378;-55
2021/07/17 07:30:48;;;;;;;;;;;;;;;28.38;40.04;97601.25;4989701;28;1139;-56
2021/07/17 07:33:13;;;;;;;;;;;;;;;28.34;39.95;97590.88;4990152;28;1202;-55
2021/07/17 07:35:38;;;;;;;;;;;;;;;28.40;39.91;97596.63;4989071;28;1580;-56
2021/07/17 07:38:04;;;;;;;;;;;;;;;28.38;39.84;97598.59;4990444;28;1906;-54
2021/07/17 07:40:29;;;;;;;;;;;;;;;28.40;40.02;97612.53;4989861;28;1639;-55
2021/07/17 07:42:54;;;;;;;;;;;;;;;28.49;39.77;97609.91;4989702;28;1489;-55
2021/07/17 07:45:19;;;;;;;;;;;;;;;28.49;39.66;97615.19;4991303;28;1218;-55
2021/07/17 07:47:45;;;;;;;;;;;;;;;28.47;39.90;97613.69;4990624;28;1131;-55
2021/07/17 07:50:10;;;;;;;;;;;;;;;28.39;40.02;97614.38;4986546;28;1682;-54
2021/07/17 07:52:35;;;;;;;;;;;;;;;28.38;39.60;97619.81;4990313;28;1175;-55
2021/07/17 07:55:01;;;;;;;;;;;;;;;28.37;39.82;97626.94;4986201;28;1673;-54
2021/07/17 07:57:26;;;;;;;;;;;;;;;28.33;40.00;97620.22;4985837;28;1977;-56
2021/07/17 07:59:51;;;;;;;;;;;;;;;28.46;39.92;97622.63;4989835;28;1295;-56
2021/07/17 08:02:16;;;;;;;;;;;;;;;28.43;39.75;97626.34;4989254;28;1407;-56
2021/07/17 08:04:42;;;;;;;;;;;;;;;28.30;40.30;97615.19;4988120;28;1572;-56
2021/07/17 08:07:08;;;;;;;;;;;;;;;28.41;39.93;97614.22;4991573;28;1526;-57
2021/07/17 08:09:33;;;;;;;;;;;;;;;28.39;39.82;97618.81;4990329;28;1635;-56
2021/07/17 08:11:58;;;;;;;;;;;;;;;28.41;39.64;97617.72;4988954;28;1459;-56
2021/07/17 08:14:24;;;;;;;;;;;;;;;28.41;39.87;97623.00;4990902;28;1206;-55
2021/07/17 08:16:49;;;;;;;;;;;;;;;28.36;40.03;97627.91;4989809;28;1431;-56
2021/07/17 08:19:15;;;;;;;;;;;;;;;28.32;39.98;97619.38;4988429;28;1950;-56
2021/07/17 08:21:40;;;;;;;;;;;;;;;28.40;39.61;97620.50;4988656;28;1514;-56
2021/07/17 08:24:07;;;;;;;;;;;;;;;28.36;39.76;97615.47;4989289;28;1656;-57
2021/07/17 08:26:32;;;;;;;;;;;;;;;28.42;39.92;97619.38;4989459;28;1332;-58
2021/07/17 08:28:57;;;;;;;;;;;;;;;28.35;39.90;97611.13;4990243;28;1716;-56
2021/07/17 08:31:22;;;;;;;;;;;;;;;28.37;39.83;97608.38;4989506;28;1229;-57
2021/07/17 08:33:47;;;;;;;;;;;;;;;28.46;39.86;97617.31;4986716;28;2122;-56
2021/07/17 08:36:13;;;;;;;;;;;;;;;28.41;39.81;97614.22;4990679;28;1135;-56
2021/07/17 08:38:38;;;;;;;;;;;;;;;28.39;39.91;97611.72;4993226;28;1985;-56
2021/07/17 08:41:03;;;;;;;;;;;;;;;28.41;39.76;97620.34;4992030;28;1560;-54
2021/07/17 08:43:28;;;;;;;;;;;;;;;28.47;39.71;97611.84;4975491;28;1367;-56
2021/07/17 08:45:54;;;;;;;;;;;;;;;28.46;39.90;97618.16;4994576;28;1060;-56
2021/07/17 08:48:21;;;;;;;;;;;;;;;28.50;39.34;97618.69;4991642;28;1632;-55
2021/07/17 08:50:46;;;;;;;;;;;;;;;28.34;40.09;97609.47;4994507;28;1421;-56
2021/07/17 08:53:11;;;;;;;;;;;;;;;28.51;39.70;97613.25;4993500;28;1170;-56
2021/07/17 08:55:36;;;;;;;;;;;;;;;28.47;39.86;97601.25;4974557;28;1568;-55
2021/07/17 08:58:02;;;;;;;;;;;;;;;28.41;39.96;97612.41;4994009;28;1902;-57
2021/07/17 09:00:27;;;;;;;;;;;;;;;28.39;39.95;97610.88;4959292;28;1533;-56
2021/07/17 09:02:54;;;;;;;;;;;;;;;28.41;40.01;97617.72;4993531;28;1067;-56
2021/07/17 09:05:21;;;;;;;;;;;;;;;28.43;39.85;97607.78;4990412;28;1513;-56
2021/07/17 09:07:46;;;;;;;;;;;;;;;28.42;39.55;97616.72;4992531;28;1585;-57
2021/07/17 09:10:28;;;;;;;;;;;;;;;28.44;39.73;97612.16;4991277;28;1623;-56
2021/07/17 09:13:12;;;;;;;;;;;;;;;28.31;39.67;97612.41;4993178;28;1312;-55
2021/07/17 09:15:37;;;;;;;;;;;;;;;28.30;40.11;97615.19;4992942;28;1116;-56
2021/07/17 09:18:03;;;;;;;;;;;;;;;28.31;39.90;97609.75;4991689;28;1914;-56
2021/07/17 09:20:28;;;;;;;;;;;;;;;28.37;39.78;97616.31;4991487;28;1683;-56
2021/07/17 09:23:00;;;;;;;;;;;;;;;28.39;39.95;97609.06;4992292;28;1364;-56
2021/07/17 09:25:33;;;;;;;;;;;;;;;28.39;40.00;97613.53;4990894;28;1775;-56
2021/07/17 09:28:14;;;;;;;;;;;;;;;28.34;39.83;97611.28;4992799;28;1387;-56
2021/07/17 09:30:39;;;;;;;;;;;;;;;28.49;39.60;97615.19;4991635;28;1099;-56
2021/07/17 09:33:06;;;;;;;;;;;;;;;28.58;39.24;97611.72;4990315;28;1624;-56
2021/07/17 09:35:33;;;;;;;;;;;;;;;28.46;39.72;97614.66;4993501;28;1166;-56
2021/07/17 09:38:00;;;;;;;;;;;;;;;28.51;39.52;97607.94;4992298;28;1906;-57
2021/07/17 09:40:26;;;;;;;;;;;;;;;28.41;39.96;97609.75;4992224;28;1529;-56
2021/07/17 09:42:51;;;;;;;;;;;;;;;28.46;39.88;97604.88;4991955;28;1489;-56
2021/07/17 09:45:32;;;;;;;;;;;;;;;28.50;39.70;97603.59;4991769;28;1071;-56
2021/07/17 09:47:57;;;;;;;;;;;;;;;28.42;39.80;97608.78;4989058;28;1602;-56
2021/07/17 09:50:23;;;;;;;;;;;;;;;28.31;40.08;97604.44;4975809;28;1312;-56
2021/07/17 09:52:48;;;;;;;;;;;;;;;28.55;39.58;97603.22;4973671;28;1486;-55
2021/07/17 09:55:14;;;;;;;;;;;;;;;28.47;39.64;97598.59;4990318;28;1624;-56
2021/07/17 09:57:39;;;;;;;;;;;;;;;28.45;39.68;97602.38;4992574;28;1961;-57
2021/07/17 10:00:08;;;;;;;;;;;;;;;28.42;39.89;97600.81;4992183;28;1537;-57
2021/07/17 10:02:37;;;;;;;;;;;;;;;28.47;39.56;97595.09;4991517;28;1198;-56
2021/07/17 10:05:03;;;;;;;;;;;;;;;28.46;39.60;97593.44;4990213;28;1667;-57
2021/07/17 10:07:28;;;;;;;;;;;;;;;28.39;39.53;97590.50;4992834;28;1127;-56
2021/07/17 10:09:53;;;;;;;;;;;;;;;28.28;40.05;97588.78;4990510;28;1584;-56
2021/07/17 10:12:18;;;;;;;;;;;;;;;28.35;39.86;97587.25;4991872;28;1177;-57
2021/07/17 10:14:44;;;;;;;;;;;;;;;28.43;39.49;97589.22;4975337;28;1483;-56
2021/07/17 10:17:15;;;;;;;;;;;;;;;28.38;39.71;97590.63;4991777;28;1142;-56
2021/07/17 10:19:41;;;;;;;;;;;;;;;28.41;39.92;97585.88;4991115;28;1721;-56
2021/07/17 10:22:06;;;;;;;;;;;;;;;28.46;39.52;97588.97;4992027;28;1139;-56
2021/07/17 10:24:32;;;;;;;;;;;;;;;28.36;39.57;97585.47;4990417;28;1662;-56
2021/07/17 10:26:57;;;;;;;;;;;;;;;28.40;39.49;97589.50;4991757;28;999;-56
2021/07/17 10:29:22;;;;;;;;;;;;;;;28.43;39.70;97586.56;4990804;28;1374;-56
2021/07/17 10:31:48;;;;;;;;;;;;;;;28.45;39.58;97592.59;4991693;28;1150;-56
2021/07/17 10:34:13;;;;;;;;;;;;;;;28.39;39.83;97584.34;4990638;28;1552;-59
2021/07/17 10:36:43;;;;;;;;;;;;;;;28.37;39.98;97587.16;4992625;28;1123;-56
2021/07/17 10:39:09;;;;;;;;;;;;;;;28.47;39.60;97590.63;4990299;28;1898;-58
2021/07/17 10:41:34;;;;;;;;;;;;;;;28.38;39.91;97580.84;4992340;28;1010;-56
2021/07/17 10:43:59;;;;;;;;;;;;;;;28.41;39.83;97582.38;4973899;28;1127;-56
2021/07/17 10:46:25;;;;;;;;;;;;;;;28.41;39.48;97580.56;4992666;28;1238;-56
2021/07/17 10:48:53;;;;;;;;;;;;;;;28.39;39.89;97579.88;4990541;28;1560;-56
2021/07/17 10:51:29;;;;;;;;;;;;;;;28.34;39.78;97582.09;4991529;28;1335;-56
2021/07/17 10:53:56;;;;;;;;;;;;;;;28.34;39.92;97579.44;4990871;28;1104;-57
2021/07/17 10:56:27;;;;;;;;;;;;;;;28.34;39.92;97577.63;4986789;28;1627;-57
2021/07/17 10:58:52;;;;;;;;;;;;;;;28.47;39.75;97571.22;4990181;28;1902;-55
2021/07/17 11:01:18;;;;;;;;;;;;;;;28.48;39.63;97579.03;4989852;28;1063;-57
2021/07/17 11:03:44;;;;;;;;;;;;;;;28.33;40.03;97578.59;4989381;28;1581;-56
2021/07/17 11:06:24;;;;;;;;;;;;;;;28.42;39.69;97574.28;4991144;28;1441;-56
2021/07/17 11:08:49;;;;;;;;;;;;;;;28.35;40.08;97573.16;4990819;28;1314;-57
2021/07/17 11:11:27;;;;;;;;;;;;;;;28.42;39.71;97571.63;4989813;28;1533;-56
2021/07/17 11:13:52;;;;;;;;;;;;;;;28.32;39.99;97571.63;4989727;28;1061;-57
2021/07/17 11:16:36;;;;;;;;;;;;;;;28.38;39.74;97570.25;4988559;28;1572;-55
2021/07/17 11:19:31;;;;;;;;;;;;;;;28.36;39.84;97570.41;4990947;28;1910;-56
2021/07/17 11:21:56;;;;;;;;;;;;;;;28.38;39.91;97564.09;4979975;28;1688;-55
2021/07/17 11:24:24;;;;;;;;;;;;;;;28.42;39.87;97563.66;4988677;28;1576;-56
2021/07/17 11:27:19;;;;;;;;;;;;;;;28.36;39.85;97556.28;4990681;28;1446;-57
2021/07/17 11:29:48;;;;;;;;;;;;;;;28.34;39.78;97552.91;4978419;28;1432;-56
2021/07/17 11:32:13;;;;;;;;;;;;;;;28.35;39.79;97547.47;4988141;28;1552;-55
2021/07/17 11:34:41;;;;;;;;;;;;;;;28.34;39.78;97555.56;4989970;28;1782;-56
2021/07/17 11:37:07;;;;;;;;;;;;;;;28.36;39.96;97558.94;4990896;28;1360;-57
2021/07/17 11:39:33;;;;;;;;;;;;;;;28.48;39.50;97554.34;4989148;28;1902;-57
2021/07/17 11:41:59;;;;;;;;;;;;;;;28.48;39.50;97557.81;4990057;28;1383;-56
2021/07/17 11:44:27;;;;;;;;;;;;;;;28.39;39.77;97548.06;4986951;28;1531;-57
2021/07/17 11:46:53;;;;;;;;;;;;;;;28.38;39.78;97550.84;4990797;28;1242;-57
2021/07/17 11:49:18;;;;;;;;;;;;;;;28.36;39.85;97545.69;4990481;28;1347;-55
2021/07/17 11:51:47;;;;;;;;;;;;;;;28.40;39.68;97544.41;4991168;28;1178;-56
2021/07/17 11:54:12;;;;;;;;;;;;;;;28.42;39.77;97538.97;4986263;28;1541;-56
2021/07/17 11:56:37;;;;;;;;;;;;;;;28.40;39.55;97547.06;4990254;28;969;-55
2021/07/17 11:59:12;;;;;;;;;;;;;;;28.35;39.83;97539.50;4990771;28;1969;-55
2021/07/17 12:01:37;;;;;;;;;;;;;;;28.32;40.06;97531.00;4991083;28;1119;-55
2021/07/17 12:04:03;;;;;;;;;;;;;;;28.45;39.58;97542.19;4971675;28;1581;-55
2021/07/17 12:06:28;;;;;;;;;;;;;;;28.40;39.67;97533.81;4990877;28;1364;-55
2021/07/17 12:08:53;;;;;;;;;;;;;;;28.42;39.39;97531.00;4989949;28;1304;-55
2021/07/17 12:11:19;;;;;;;;;;;;;;;28.46;39.66;97535.91;4988170;28;1571;-55
2021/07/17 12:13:44;;;;;;;;;;;;;;;28.35;39.82;97530.72;4989950;28;1340;-55
2021/07/17 12:16:19;;;;;;;;;;;;;;;28.48;39.46;97531.28;4989819;28;1094;-55
2021/07/17 12:18:51;;;;;;;;;;;;;;;28.46;39.43;97541.22;4986606;28;1907;-55
2021/07/17 12:21:16;;;;;;;;;;;;;;;28.45;39.62;97528.09;4973684;28;1096;-55
2021/07/17 12:23:43;;;;;;;;;;;;;;;28.37;39.72;97526.13;4989949;28;1178;-54
2021/07/17 12:26:08;;;;;;;;;;;;;;;28.38;39.54;97524.31;4985688;28;1596;-55
2021/07/17 12:28:37;;;;;;;;;;;;;;;28.37;39.75;97520.84;4989813;28;1300;-53
2021/07/17 12:31:07;;;;;;;;;;;;;;;28.41;39.84;97516.06;4989213;28;1249;-55
2021/07/17 12:33:36;;;;;;;;;;;;;;;28.52;39.50;97522.09;4987102;28;1543;-54
2021/07/17 12:36:03;;;;;;;;;;;;;;;28.46;39.53;97517.34;4988738;28;1132;-55
2021/07/17 12:38:29;;;;;;;;;;;;;;;28.49;39.51;97526.81;4988931;28;1891;-55
2021/07/17 12:40:58;;;;;;;;;;;;;;;28.46;39.32;97520.00;4988971;28;1617;-55
2021/07/17 12:43:25;;;;;;;;;;;;;;;28.41;39.49;97532.00;4989208;28;1281;-54
2021/07/17 12:46:14;;;;;;;;;;;;;;;28.45;39.71;97534.22;4989761;28;1020;-55
2021/07/17 12:48:49;;;;;;;;;;;;;;;28.40;39.72;97530.31;4984861;28;1465;-52
2021/07/17 12:51:17;;;;;;;;;;;;;;;28.48;39.65;97530.47;4990110;28;1072;-55
2021/07/17 12:53:42;;;;;;;;;;;;;;;28.48;39.53;97525.97;4987393;28;1279;-55